createdAt,value
2023-04-19T00:01:41.457Z,58.53
2023-04-19T00:04:08.377Z,58.81
2023-04-19T00:06:35.938Z,59.30
2023-04-19T00:09:02.753Z,59.06
2023-04-19T00:11:29.633Z,58.58
2023-04-19T00:13:56.250Z,58.65
2023-04-19T00:16:22.898Z,58.74
2023-04-19T00:18:50.194Z,58.83
2023-04-19T00:21:16.807Z,59.02
2023-04-19T00:23:43.649Z,59.00
2023-04-19T00:26:11.135Z,59.15
2023-04-19T00:28:38.156Z,59.46
2023-04-19T00:31:04.995Z,59.69
2023-04-19T00:33:32.590Z,59.59
2023-04-19T00:35:59.193Z,59.78
2023-04-19T00:38:25.770Z,59.97
2023-04-19T00:40:52.424Z,60.25
2023-04-19T00:43:19.616Z,60.40
2023-04-19T00:45:46.273Z,60.61
2023-04-19T00:48:13.321Z,60.61
2023-04-19T00:50:41.029Z,61.17
2023-04-19T00:53:07.643Z,61.70
2023-04-19T00:55:34.474Z,61.64
2023-04-19T00:58:01.317Z,61.85
2023-04-19T01:00:28.094Z,62.24
2023-04-19T01:02:55.353Z,62.37
2023-04-19T01:05:22.890Z,62.51
2023-04-19T01:07:50.914Z,62.64
2023-04-19T01:10:18.083Z,62.73
2023-04-19T01:12:45.248Z,62.82
2023-04-19T01:15:11.813Z,63.17
2023-04-19T01:17:38.628Z,63.48
2023-04-19T01:20:07.446Z,63.66
2023-04-19T01:22:37.218Z,63.93
2023-04-19T01:25:05.989Z,64.22
2023-04-19T01:27:32.774Z,64.24
2023-04-19T01:29:59.411Z,64.27
2023-04-19T01:32:27.127Z,64.58
2023-04-19T01:34:55.911Z,64.63
2023-04-19T01:37:22.679Z,65.02
2023-04-19T01:39:49.773Z,65.34
2023-04-19T01:42:16.461Z,65.70
2023-04-19T01:44:43.082Z,65.81
2023-04-19T01:47:09.762Z,66.18
2023-04-19T01:49:36.536Z,66.30
2023-04-19T01:52:03.299Z,66.64
2023-04-19T01:54:30.415Z,67.11
2023-04-19T01:56:57.971Z,67.34
2023-04-19T01:59:25.342Z,67.35
2023-04-19T02:01:52.034Z,67.81
2023-04-19T02:04:20.064Z,68.06
2023-04-19T02:06:46.957Z,68.42
2023-04-19T02:09:13.582Z,68.39
2023-04-19T02:11:42.115Z,68.60
2023-04-19T02:14:08.966Z,68.65
2023-04-19T02:16:36.467Z,68.91
2023-04-19T02:19:04.052Z,68.98
2023-04-19T02:21:31.369Z,68.92
2023-04-19T02:23:58.106Z,69.15
2023-04-19T02:26:24.873Z,69.19
2023-04-19T02:28:52.406Z,69.38
2023-04-19T02:31:19.121Z,69.66
2023-04-19T02:33:46.214Z,69.91
2023-04-19T02:36:12.864Z,69.93
2023-04-19T02:38:40.137Z,70.57
2023-04-19T02:41:06.820Z,70.85
2023-04-19T02:43:33.783Z,71.00
2023-04-19T02:46:01.219Z,71.36
2023-04-19T02:48:28.000Z,71.44
2023-04-19T02:50:56.462Z,71.63
2023-04-19T02:53:23.515Z,71.93
2023-04-19T02:55:50.500Z,72.03
2023-04-19T02:58:19.480Z,72.33
2023-04-19T03:01:00.181Z,72.25
2023-04-19T03:03:27.141Z,72.36
2023-04-19T03:05:54.311Z,72.13
2023-04-19T03:08:21.873Z,72.30
2023-04-19T03:10:49.611Z,72.26
2023-04-19T03:13:16.220Z,72.11
2023-04-19T03:15:42.942Z,72.13
2023-04-19T03:18:10.005Z,72.29
2023-04-19T03:20:36.929Z,72.42
2023-04-19T03:23:03.751Z,72.50
2023-04-19T03:25:32.706Z,72.58
2023-04-19T03:28:09.262Z,72.52
2023-04-19T03:30:53.573Z,72.43
2023-04-19T03:33:20.472Z,72.03
2023-04-19T03:35:47.613Z,71.85
2023-04-19T03:38:15.574Z,71.63
2023-04-19T03:40:42.905Z,71.40
2023-04-19T03:43:09.887Z,70.78
2023-04-19T03:45:36.508Z,70.41
2023-04-19T03:48:03.591Z,69.85
2023-04-19T03:50:30.715Z,69.59
2023-04-19T03:52:57.554Z,69.32
2023-04-19T03:55:24.926Z,68.95
2023-04-19T03:57:52.142Z,68.48
2023-04-19T04:00:24.264Z,67.93
2023-04-19T04:02:54.324Z,67.65
2023-04-19T04:05:21.367Z,67.22
2023-04-19T04:07:48.137Z,67.00
2023-04-19T04:10:15.029Z,67.12
2023-04-19T04:12:42.887Z,67.03
2023-04-19T04:15:11.178Z,66.55
2023-04-19T04:17:41.754Z,66.37
2023-04-19T04:20:09.325Z,66.35
2023-04-19T04:22:36.957Z,66.52
2023-04-19T04:25:04.244Z,66.54
2023-04-19T04:27:37.365Z,66.07
2023-04-19T04:30:06.022Z,65.83
2023-04-19T04:32:35.969Z,65.45
2023-04-19T04:35:04.641Z,64.84
2023-04-19T04:37:49.672Z,63.71
2023-04-19T04:40:16.385Z,63.16
2023-04-19T04:42:44.898Z,61.37
2023-04-19T04:45:12.472Z,60.17
2023-04-19T04:47:39.881Z,59.86
2023-04-19T04:50:07.506Z,59.02
2023-04-19T04:52:34.234Z,58.89
2023-04-19T04:55:07.116Z,58.15
2023-04-19T04:57:35.876Z,58.34
2023-04-19T05:00:06.028Z,58.61
2023-04-19T05:02:37.455Z,58.11
2023-04-19T05:05:05.128Z,57.41
2023-04-19T05:07:32.821Z,56.95
2023-04-19T05:10:01.682Z,56.56
2023-04-19T05:12:33.534Z,55.81
2023-04-19T05:15:00.600Z,54.03
2023-04-19T05:17:28.148Z,53.05
2023-04-19T05:19:54.837Z,51.75
2023-04-19T05:22:21.907Z,50.54
2023-04-19T05:24:49.820Z,49.22
2023-04-19T05:27:16.708Z,47.53
2023-04-19T05:29:44.075Z,46.48
2023-04-19T05:32:11.094Z,45.82
2023-04-19T05:34:44.604Z,44.45
2023-04-19T05:37:12.696Z,44.22
2023-04-19T05:39:41.037Z,42.09
2023-04-19T05:42:09.154Z,41.61
2023-04-19T05:44:36.239Z,40.38
2023-04-19T05:47:03.083Z,39.38
2023-04-19T05:50:05.741Z,38.38
2023-04-19T05:52:37.486Z,37.01
2023-04-19T05:55:05.386Z,36.79
2023-04-19T05:57:33.197Z,36.45
2023-04-19T06:02:44.167Z,37.22
2023-04-19T06:05:12.843Z,37.27
2023-04-19T06:07:43.228Z,35.78
2023-04-19T06:10:13.872Z,35.66
2023-04-19T06:12:41.617Z,35.38
2023-04-19T06:15:08.855Z,34.38
2023-04-19T06:17:36.703Z,33.73
2023-04-19T06:20:06.479Z,33.28
2023-04-19T06:22:33.489Z,32.39
2023-04-19T06:25:00.817Z,31.60
2023-04-19T06:27:27.495Z,30.24
2023-04-19T06:29:54.759Z,29.72
2023-04-19T06:32:21.602Z,29.37
2023-04-19T06:34:48.425Z,28.74
2023-04-19T06:37:15.159Z,29.30
2023-04-19T06:39:42.186Z,28.00
2023-04-19T06:42:09.162Z,28.25
2023-04-19T06:44:38.813Z,27.66
2023-04-19T06:47:07.178Z,27.29
2023-04-19T06:49:34.521Z,27.55
2023-04-19T06:52:01.352Z,26.82
2023-04-19T06:54:28.517Z,26.02
2023-04-19T06:56:56.832Z,26.01
2023-04-19T06:59:29.600Z,26.33
2023-04-19T07:01:58.266Z,26.12
2023-04-19T07:04:34.580Z,25.93
2023-04-19T07:07:01.637Z,25.08
2023-04-19T07:09:28.681Z,24.57
2023-04-19T07:11:55.461Z,24.09
2023-04-19T07:14:23.318Z,24.22
2023-04-19T07:16:50.976Z,24.90
2023-04-19T07:19:20.105Z,24.01
2023-04-19T07:21:47.030Z,24.37
2023-04-19T07:24:14.111Z,24.58
2023-04-19T07:26:41.122Z,24.50
2023-04-19T07:29:08.811Z,24.00
2023-04-19T07:31:36.368Z,25.02
2023-04-19T07:34:03.644Z,25.52
2023-04-19T07:36:31.200Z,24.67
2023-04-19T07:38:58.090Z,24.44
2023-04-19T07:41:25.074Z,23.81
2023-04-19T07:43:52.061Z,23.71
2023-04-19T07:46:18.971Z,24.34
2023-04-19T07:48:46.030Z,24.96
2023-04-19T07:51:16.553Z,24.56
2023-04-19T07:53:43.480Z,24.16
2023-04-19T07:56:12.747Z,23.64
2023-04-19T07:58:40.775Z,22.95
2023-04-19T08:01:07.533Z,22.85
2023-04-19T08:03:35.787Z,22.56
2023-04-19T08:06:08.307Z,22.87
2023-04-19T08:08:36.216Z,22.49
2023-04-19T08:11:04.747Z,21.70
2023-04-19T08:13:31.936Z,21.87
2023-04-19T08:18:28.716Z,22.38
2023-04-19T08:20:56.553Z,22.93
2023-04-19T08:23:29.481Z,22.13
2023-04-19T08:26:02.183Z,21.83
2023-04-19T08:28:31.926Z,21.95
2023-04-19T08:31:00.810Z,22.43
2023-04-19T08:33:28.366Z,21.99
2023-04-19T08:35:55.391Z,21.60
2023-04-19T08:38:22.464Z,22.09
2023-04-19T08:40:53.232Z,21.93
2023-04-19T08:43:20.612Z,22.17
2023-04-19T08:45:49.622Z,21.85
2023-04-19T08:48:17.358Z,21.83
2023-04-19T08:51:03.561Z,21.90
2023-04-19T08:53:35.456Z,22.18
2023-04-19T09:01:06.489Z,21.30
2023-04-19T09:03:44.014Z,21.40
2023-04-19T09:06:18.608Z,21.72
2023-04-19T09:08:45.579Z,21.69
2023-04-19T09:11:12.595Z,21.68
2023-04-19T09:13:43.464Z,21.50
2023-04-19T09:16:24.354Z,20.84
2023-04-19T09:19:08.146Z,20.89
2023-04-19T09:21:42.295Z,21.80
2023-04-19T09:24:09.246Z,22.22
2023-04-19T09:26:36.144Z,22.27
2023-04-19T09:29:06.478Z,22.56
2023-04-19T09:31:51.064Z,22.73
2023-04-19T09:34:18.833Z,22.69
2023-04-19T09:36:46.622Z,22.91
2023-04-19T09:39:14.111Z,22.05
2023-04-19T09:41:52.089Z,21.99
2023-04-19T09:46:53.154Z,22.34
2023-04-19T09:49:33.470Z,22.62
2023-04-19T09:52:04.184Z,23.01
2023-04-19T09:54:32.096Z,23.14
2023-04-19T09:57:01.322Z,23.42
2023-04-19T09:59:28.823Z,23.63
2023-04-19T10:01:55.877Z,24.06
2023-04-19T10:04:33.293Z,24.68
2023-04-19T10:07:29.064Z,24.92
2023-04-19T10:10:04.936Z,25.75
2023-04-19T10:12:59.147Z,26.83
2023-04-19T10:15:29.487Z,26.18
2023-04-19T10:18:00.891Z,27.08
2023-04-19T10:20:39.408Z,27.54
2023-04-19T10:23:09.182Z,27.62
2023-04-19T10:25:36.661Z,28.00
2023-04-19T10:28:03.523Z,27.97
2023-04-19T10:30:30.750Z,27.13
2023-04-19T10:33:02.453Z,27.74
2023-04-19T10:35:37.015Z,28.05
2023-04-19T10:38:03.854Z,27.73
2023-04-19T10:41:03.395Z,27.75
2023-04-19T10:43:31.180Z,28.38
2023-04-19T10:46:08.886Z,29.16
2023-04-19T10:48:43.142Z,28.98
2023-04-19T10:51:18.905Z,28.68
2023-04-19T10:53:48.945Z,29.38
2023-04-19T10:56:36.069Z,29.55
2023-04-19T10:59:10.637Z,30.03
2023-04-19T11:01:43.750Z,30.78
2023-04-19T11:04:11.550Z,31.11
2023-04-19T11:06:55.676Z,31.30
2023-04-19T11:09:28.221Z,31.28
2023-04-19T11:12:02.236Z,30.83
2023-04-19T11:14:31.537Z,30.67
2023-04-19T11:16:59.396Z,31.35
2023-04-19T11:19:26.509Z,32.47
2023-04-19T11:21:53.404Z,32.05
2023-04-19T11:24:20.467Z,32.05
2023-04-19T11:26:50.806Z,32.58
2023-04-19T11:29:19.721Z,32.44
2023-04-19T11:31:46.574Z,32.93
2023-04-19T11:34:13.964Z,33.39
2023-04-19T11:36:50.575Z,33.64
2023-04-19T11:39:18.185Z,33.69
2023-04-19T11:41:47.229Z,33.68
2023-04-19T11:44:19.778Z,34.02
2023-04-19T11:47:04.504Z,34.96
2023-04-19T11:49:32.671Z,35.28
2023-04-19T11:52:00.392Z,35.82
2023-04-19T11:54:27.538Z,36.65
2023-04-19T11:57:04.202Z,37.52
2023-04-19T11:59:32.112Z,37.68
2023-04-19T12:02:17.501Z,38.21
2023-04-19T12:04:44.324Z,38.20
2023-04-19T12:07:11.555Z,38.34
2023-04-19T12:09:38.764Z,38.81
2023-04-19T12:12:06.274Z,39.49
2023-04-19T12:14:33.745Z,40.13
2023-04-19T12:17:04.845Z,40.62
2023-04-19T12:19:36.525Z,41.35
2023-04-19T12:22:17.023Z,42.04
2023-04-19T12:24:43.962Z,42.58
2023-04-19T12:27:11.244Z,43.16
2023-04-19T12:29:38.571Z,43.50
2023-04-19T12:32:05.675Z,43.82
2023-04-19T12:34:32.749Z,43.86
2023-04-19T12:36:59.652Z,43.93
2023-04-19T12:39:27.665Z,44.23
2023-04-19T12:41:54.291Z,44.41
2023-04-19T12:44:21.190Z,44.62
2023-04-19T12:46:48.032Z,45.06
2023-04-19T12:49:17.728Z,45.66
2023-04-19T12:51:46.922Z,46.24
2023-04-19T12:54:14.834Z,46.79
2023-04-19T12:56:41.528Z,47.23
2023-04-19T12:59:08.229Z,47.69
2023-04-19T13:01:35.257Z,48.01
2023-04-19T13:04:02.515Z,48.28
2023-04-19T13:06:30.740Z,48.40
2023-04-19T13:09:00.927Z,48.76
2023-04-19T13:11:28.255Z,49.36
2023-04-19T13:13:55.223Z,49.59
2023-04-19T13:16:22.671Z,49.90
2023-04-19T13:18:50.375Z,50.12
2023-04-19T13:21:17.476Z,50.37
2023-04-19T13:23:44.542Z,50.67
2023-04-19T13:26:11.443Z,50.77
2023-04-19T13:28:39.296Z,50.98
2023-04-19T13:31:06.044Z,51.23
2023-04-19T13:33:33.593Z,51.75
2023-04-19T13:36:00.905Z,52.33
2023-04-19T13:38:28.186Z,52.47
2023-04-19T13:40:55.599Z,52.92
2023-04-19T13:43:22.591Z,53.49
2023-04-19T13:45:49.267Z,53.71
2023-04-19T13:48:16.197Z,53.98
2023-04-19T13:50:42.984Z,54.64
2023-04-19T13:53:10.045Z,54.84
2023-04-19T13:55:36.701Z,54.86
2023-04-19T13:58:03.408Z,55.00
2023-04-19T14:00:30.350Z,55.09
2023-04-19T14:02:57.497Z,54.74
2023-04-19T14:05:24.405Z,54.40
2023-04-19T14:07:51.891Z,54.61
2023-04-19T14:10:19.059Z,54.74
2023-04-19T14:12:46.653Z,54.67
2023-04-19T14:15:13.295Z,54.90
2023-04-19T14:17:40.420Z,55.25
2023-04-19T14:20:07.897Z,55.39
2023-04-19T14:22:35.716Z,55.69
2023-04-19T14:25:03.589Z,55.53
2023-04-19T14:27:30.474Z,55.23
2023-04-19T14:29:57.120Z,55.06
2023-04-19T14:32:26.743Z,55.21
2023-04-19T14:34:55.272Z,54.72
2023-04-19T14:37:22.804Z,54.56
2023-04-19T14:39:49.403Z,54.65
2023-04-19T14:42:16.170Z,54.78
2023-04-19T14:44:45.774Z,55.10
2023-04-19T14:47:13.749Z,55.21
2023-04-19T14:49:41.445Z,54.83
2023-04-19T14:52:08.138Z,54.38
2023-04-19T14:54:34.764Z,53.09
2023-04-19T14:57:02.404Z,53.05
2023-04-19T14:59:29.925Z,52.72
2023-04-19T15:01:56.824Z,52.57
2023-04-19T15:04:24.016Z,52.28
2023-04-19T15:06:51.088Z,52.15
2023-04-19T15:09:18.185Z,52.63
2023-04-19T15:11:45.264Z,52.23
2023-04-19T15:14:11.868Z,52.16
2023-04-19T15:16:38.765Z,51.98
2023-04-19T15:19:06.865Z,51.82
2023-04-19T15:21:34.147Z,51.82
2023-04-19T15:24:00.927Z,51.97
2023-04-19T15:26:27.588Z,51.70
2023-04-19T15:28:55.204Z,52.04
2023-04-19T15:31:21.972Z,52.07
2023-04-19T15:33:48.724Z,51.77
2023-04-19T15:36:15.716Z,51.76
2023-04-19T15:38:43.937Z,51.63
2023-04-19T15:41:10.839Z,51.72
2023-04-19T15:43:37.520Z,51.71
2023-04-19T15:46:04.310Z,51.68
2023-04-19T15:48:31.312Z,51.68
2023-04-19T15:50:58.511Z,51.90
2023-04-19T15:53:25.417Z,52.26
2023-04-19T15:55:52.892Z,52.40
2023-04-19T15:58:20.494Z,52.65
2023-04-19T16:00:47.097Z,52.76
2023-04-19T16:03:13.995Z,52.88
2023-04-19T16:05:40.874Z,53.02
2023-04-19T16:08:08.550Z,53.14
2023-04-19T16:10:36.372Z,53.31
2023-04-19T16:13:04.268Z,53.34
2023-04-19T16:15:31.442Z,53.44
2023-04-19T16:17:58.108Z,53.66
2023-04-19T16:20:24.776Z,53.84
2023-04-19T16:22:51.523Z,53.81
2023-04-19T16:25:18.259Z,54.11
2023-04-19T16:27:45.556Z,54.00
2023-04-19T16:30:12.896Z,54.22
2023-04-19T16:32:40.748Z,54.30
2023-04-19T16:35:07.655Z,54.40
2023-04-19T16:37:34.714Z,54.58
2023-04-19T16:40:06.386Z,54.78
2023-04-19T16:42:34.009Z,55.07
2023-04-19T16:45:00.904Z,55.51
2023-04-19T16:47:29.598Z,55.84
2023-04-19T16:49:57.255Z,56.12
2023-04-19T16:52:25.065Z,56.76
2023-04-19T16:54:51.869Z,57.26
2023-04-19T16:57:18.586Z,57.59
2023-04-19T16:59:45.383Z,58.18
2023-04-19T17:02:12.475Z,58.33
2023-04-19T17:04:39.669Z,58.94
2023-04-19T17:07:08.008Z,58.88
2023-04-19T17:09:35.728Z,59.07
2023-04-19T17:12:02.630Z,59.01
2023-04-19T17:14:29.398Z,58.94
2023-04-19T17:16:56.143Z,58.89
2023-04-19T17:19:22.795Z,58.70
2023-04-19T17:21:49.356Z,58.99
2023-04-19T17:24:16.017Z,59.55
2023-04-19T17:26:42.634Z,60.53
2023-04-19T17:29:09.479Z,60.27
2023-04-19T17:31:36.545Z,60.27
2023-04-19T17:34:03.272Z,59.72
2023-04-19T17:36:31.057Z,59.39
2023-04-19T17:38:57.738Z,58.95
2023-04-19T17:41:24.338Z,58.75
2023-04-19T17:43:51.430Z,58.85
2023-04-19T17:46:18.710Z,58.83
2023-04-19T17:48:45.922Z,58.84
2023-04-19T17:51:12.537Z,59.15
2023-04-19T17:53:39.213Z,59.13
2023-04-19T17:56:05.827Z,59.06
2023-04-19T17:58:35.088Z,59.04
2023-04-19T18:01:02.895Z,58.72
2023-04-19T18:03:30.372Z,58.13
2023-04-19T18:05:57.192Z,57.84
2023-04-19T18:08:24.132Z,57.34
2023-04-19T18:10:50.823Z,57.24
2023-04-19T18:13:18.362Z,57.32
2023-04-19T18:15:45.107Z,56.29
2023-04-19T18:18:11.797Z,55.71
2023-04-19T18:20:38.801Z,56.14
2023-04-19T18:23:05.525Z,55.94
2023-04-19T18:25:36.079Z,55.61
2023-04-19T18:28:03.849Z,55.52
2023-04-19T18:30:30.882Z,55.88
2023-04-19T18:32:58.395Z,56.14
2023-04-19T18:35:25.100Z,56.17
2023-04-19T18:37:51.773Z,56.50
2023-04-19T18:40:18.796Z,56.75
2023-04-19T18:42:45.580Z,56.67
2023-04-19T18:45:12.336Z,56.95
2023-04-19T18:47:39.059Z,57.27
2023-04-19T18:50:07.879Z,57.55
2023-04-19T18:52:38.110Z,57.82
2023-04-19T18:55:05.534Z,58.23
2023-04-19T18:57:34.726Z,58.81
2023-04-19T19:00:04.707Z,59.10
2023-04-19T19:02:33.724Z,59.74
2023-04-19T19:05:02.368Z,60.07
2023-04-19T19:10:01.580Z,60.55
2023-04-19T19:12:29.308Z,60.95
2023-04-19T19:14:56.152Z,61.29
2023-04-19T19:17:27.930Z,61.38
2023-04-19T19:19:55.143Z,61.46
2023-04-19T19:22:28.390Z,61.84
2023-04-19T19:24:57.024Z,61.80
2023-04-19T19:27:23.880Z,62.20
2023-04-19T19:29:50.418Z,62.37
2023-04-19T19:32:18.611Z,62.71
2023-04-19T19:34:54.773Z,62.95
2023-04-19T19:37:22.980Z,63.31
2023-04-19T19:39:49.862Z,63.56
2023-04-19T19:42:17.182Z,63.55
2023-04-19T19:44:43.917Z,63.64
2023-04-19T19:47:11.156Z,63.54
2023-04-19T19:52:07.753Z,63.44
2023-04-19T19:54:34.697Z,63.13
2023-04-19T19:59:34.648Z,62.95
2023-04-19T20:02:02.915Z,62.48
2023-04-19T20:04:31.121Z,62.47
2023-04-19T20:07:28.767Z,61.93
2023-04-19T20:09:45.061Z,62.11
2023-04-19T20:12:12.837Z,62.20
2023-04-19T20:14:39.789Z,61.84
2023-04-19T20:17:06.591Z,61.62
2023-04-19T20:19:33.398Z,61.22
2023-04-19T20:22:00.059Z,60.83
2023-04-19T20:24:26.985Z,60.52
2023-04-19T20:26:54.051Z,60.21
2023-04-19T20:29:20.872Z,60.04
2023-04-19T20:31:47.635Z,59.62
2023-04-19T20:34:14.355Z,59.54
2023-04-19T20:36:41.065Z,59.42
2023-04-19T20:39:12.507Z,59.78
2023-04-19T20:41:40.043Z,60.27
2023-04-19T20:44:06.989Z,60.12
2023-04-19T20:46:33.997Z,59.75
2023-04-19T20:49:00.653Z,59.60
2023-04-19T20:51:27.229Z,59.83
2023-04-19T20:53:53.827Z,60.64
2023-04-19T20:56:20.998Z,60.83
2023-04-19T20:58:48.026Z,60.78
2023-04-19T21:01:16.758Z,60.50
2023-04-19T21:03:43.748Z,60.38
2023-04-19T21:06:11.001Z,60.00
2023-04-19T21:08:38.043Z,60.21
2023-04-19T21:11:04.736Z,60.23
2023-04-19T21:13:32.722Z,60.77
2023-04-19T21:15:59.655Z,60.75
2023-04-19T21:18:29.126Z,59.92
2023-04-19T21:20:56.673Z,59.48
2023-04-19T21:23:23.520Z,59.60
2023-04-19T21:25:50.173Z,59.75
2023-04-19T21:28:16.795Z,59.98
2023-04-19T21:30:43.514Z,59.90
2023-04-19T21:33:10.248Z,59.34
2023-04-19T21:35:36.900Z,59.19
2023-04-19T21:38:03.545Z,59.04
2023-04-19T21:40:30.224Z,59.02
2023-04-19T21:42:56.886Z,58.70
2023-04-19T21:45:23.636Z,58.92
2023-04-19T21:47:50.697Z,59.20
2023-04-19T21:50:17.375Z,59.10
2023-04-19T21:52:44.271Z,59.19
2023-04-19T21:55:10.916Z,59.40
2023-04-19T21:57:37.902Z,59.24
2023-04-19T22:00:05.937Z,58.88
2023-04-19T22:02:33.689Z,58.68
2023-04-19T22:05:00.609Z,58.86
2023-04-19T22:07:29.683Z,58.97
2023-04-19T22:09:57.422Z,59.27
2023-04-19T22:12:24.208Z,59.23
2023-04-19T22:14:51.388Z,59.30
2023-04-19T22:17:18.085Z,58.96
2023-04-19T22:19:45.427Z,58.74
2023-04-19T22:22:12.086Z,58.89
2023-04-19T22:24:50.030Z,58.74
2023-04-19T22:27:24.037Z,58.59
2023-04-19T22:29:50.655Z,58.90
2023-04-19T22:32:17.312Z,58.54
2023-04-19T22:34:44.026Z,58.87
2023-04-19T22:37:11.033Z,58.87
2023-04-19T22:39:37.676Z,58.96
2023-04-19T22:42:04.430Z,58.59
2023-04-19T22:44:31.292Z,58.81
2023-04-19T22:46:59.077Z,58.81
2023-04-19T22:49:25.703Z,58.48
2023-04-19T22:51:54.231Z,58.42
2023-04-19T22:54:20.802Z,58.40
2023-04-19T22:56:47.418Z,58.29
2023-04-19T22:59:14.023Z,58.37
2023-04-19T23:01:40.768Z,58.54
2023-04-19T23:04:07.451Z,59.04
2023-04-19T23:06:36.280Z,58.50
2023-04-19T23:09:02.985Z,58.27
2023-04-19T23:11:29.740Z,58.57
2023-04-19T23:13:56.705Z,59.05
2023-04-19T23:16:23.909Z,58.54
2023-04-19T23:18:51.575Z,58.11
2023-04-19T23:21:18.238Z,57.96
2023-04-19T23:23:45.183Z,57.68
2023-04-19T23:26:11.831Z,57.67
2023-04-19T23:28:38.426Z,57.84
2023-04-19T23:31:05.150Z,57.96
2023-04-19T23:33:32.590Z,58.14
2023-04-19T23:35:59.364Z,57.87
2023-04-19T23:38:26.012Z,57.67
2023-04-19T23:40:52.675Z,57.60
2023-04-19T23:43:19.726Z,57.65
2023-04-19T23:45:46.348Z,57.68
2023-04-19T23:48:12.992Z,58.05
2023-04-19T23:50:39.702Z,58.37
2023-04-19T23:53:06.566Z,58.41
2023-04-19T23:55:33.281Z,58.17
2023-04-19T23:57:59.852Z,58.12
